sensor_id;sensor_type;location;lat;lon;timestamp;P1;durP1;ratioP1;P2;durP2;ratioP2
63555;SDS011;49700;48.072;7.800;2023-05-21T00:00:29;16.67;;;12.87;;
63555;SDS011;49700;48.072;7.800;2023-05-21T00:02:54;12.93;;;11.57;;
63555;SDS011;49700;48.072;7.800;2023-05-21T00:05:22;18.20;;;12.30;;
63555;SDS011;49700;48.072;7.800;2023-05-21T00:07:48;13.80;;;11.87;;
63555;SDS011;49700;48.072;7.800;2023-05-21T00:10:13;17.27;;;13.33;;
63555;SDS011;49700;48.072;7.800;2023-05-21T00:12:38;13.83;;;11.77;;
63555;SDS011;49700;48.072;7.800;2023-05-21T00:15:05;15.60;;;11.80;;
63555;SDS011;49700;48.072;7.800;2023-05-21T00:17:31;15.87;;;11.20;;
63555;SDS011;49700;48.072;7.800;2023-05-21T00:19:58;13.37;;;11.80;;
63555;SDS011;49700;48.072;7.800;2023-05-21T00:22:24;14.10;;;12.60;;
63555;SDS011;49700;48.072;7.800;2023-05-21T00:24:49;18.00;;;14.97;;
63555;SDS011;49700;48.072;7.800;2023-05-21T00:27:15;14.27;;;12.20;;
63555;SDS011;49700;48.072;7.800;2023-05-21T00:29:40;15.23;;;12.73;;
63555;SDS011;49700;48.072;7.800;2023-05-21T00:32:06;15.97;;;12.37;;
63555;SDS011;49700;48.072;7.800;2023-05-21T00:34:31;16.17;;;13.20;;
63555;SDS011;49700;48.072;7.800;2023-05-21T00:36:56;15.10;;;11.97;;
63555;SDS011;49700;48.072;7.800;2023-05-21T00:39:22;15.90;;;12.60;;
63555;SDS011;49700;48.072;7.800;2023-05-21T00:41:48;14.03;;;11.77;;
63555;SDS011;49700;48.072;7.800;2023-05-21T00:44:14;14.50;;;11.87;;
63555;SDS011;49700;48.072;7.800;2023-05-21T00:46:40;15.37;;;12.40;;
63555;SDS011;49700;48.072;7.800;2023-05-21T00:49:08;16.50;;;12.20;;
63555;SDS011;49700;48.072;7.800;2023-05-21T00:51:35;13.97;;;12.03;;
63555;SDS011;49700;48.072;7.800;2023-05-21T00:54:00;14.00;;;12.33;;
63555;SDS011;49700;48.072;7.800;2023-05-21T00:56:26;19.37;;;13.30;;
63555;SDS011;49700;48.072;7.800;2023-05-21T00:58:52;14.87;;;13.30;;
63555;SDS011;49700;48.072;7.800;2023-05-21T01:01:21;16.60;;;13.17;;
63555;SDS011;49700;48.072;7.800;2023-05-21T01:03:49;16.77;;;13.00;;
63555;SDS011;49700;48.072;7.800;2023-05-21T01:06:16;16.13;;;14.43;;
63555;SDS011;49700;48.072;7.800;2023-05-21T01:08:42;15.67;;;12.50;;
63555;SDS011;49700;48.072;7.800;2023-05-21T01:11:08;15.50;;;13.67;;
63555;SDS011;49700;48.072;7.800;2023-05-21T01:13:36;14.87;;;12.33;;
63555;SDS011;49700;48.072;7.800;2023-05-21T01:16:03;16.53;;;14.00;;
63555;SDS011;49700;48.072;7.800;2023-05-21T01:18:33;17.50;;;13.57;;
63555;SDS011;49700;48.072;7.800;2023-05-21T01:21:02;17.50;;;13.90;;
63555;SDS011;49700;48.072;7.800;2023-05-21T01:23:28;16.77;;;13.17;;
63555;SDS011;49700;48.072;7.800;2023-05-21T01:25:54;17.93;;;13.93;;
63555;SDS011;49700;48.072;7.800;2023-05-21T01:28:20;20.67;;;14.03;;
63555;SDS011;49700;48.072;7.800;2023-05-21T01:30:45;14.90;;;12.50;;
63555;SDS011;49700;48.072;7.800;2023-05-21T01:33:18;18.90;;;14.10;;
63555;SDS011;49700;48.072;7.800;2023-05-21T01:36:12;17.63;;;12.67;;
63555;SDS011;49700;48.072;7.800;2023-05-21T01:41:41;18.67;;;14.03;;
63555;SDS011;49700;48.072;7.800;2023-05-21T01:44:09;18.67;;;14.30;;
63555;SDS011;49700;48.072;7.800;2023-05-21T01:46:36;17.93;;;14.53;;
63555;SDS011;49700;48.072;7.800;2023-05-21T01:49:03;19.20;;;14.70;;
63555;SDS011;49700;48.072;7.800;2023-05-21T01:51:29;17.57;;;14.33;;
63555;SDS011;49700;48.072;7.800;2023-05-21T01:53:57;18.90;;;14.43;;
63555;SDS011;49700;48.072;7.800;2023-05-21T01:56:22;17.13;;;13.70;;
63555;SDS011;49700;48.072;7.800;2023-05-21T01:58:50;20.13;;;16.37;;
63555;SDS011;49700;48.072;7.800;2023-05-21T02:01:16;20.00;;;15.50;;
63555;SDS011;49700;48.072;7.800;2023-05-21T02:03:41;18.13;;;15.93;;
63555;SDS011;49700;48.072;7.800;2023-05-21T02:06:07;17.43;;;14.07;;
63555;SDS011;49700;48.072;7.800;2023-05-21T02:08:32;17.30;;;14.73;;
63555;SDS011;49700;48.072;7.800;2023-05-21T02:10:58;21.20;;;15.90;;
63555;SDS011;49700;48.072;7.800;2023-05-21T02:13:23;17.77;;;14.73;;
63555;SDS011;49700;48.072;7.800;2023-05-21T02:15:49;18.03;;;12.67;;
63555;SDS011;49700;48.072;7.800;2023-05-21T02:18:15;23.87;;;15.93;;
63555;SDS011;49700;48.072;7.800;2023-05-21T02:20:42;17.97;;;14.40;;
63555;SDS011;49700;48.072;7.800;2023-05-21T02:23:08;17.90;;;14.13;;
63555;SDS011;49700;48.072;7.800;2023-05-21T02:25:34;19.07;;;15.03;;
63555;SDS011;49700;48.072;7.800;2023-05-21T02:27:59;21.27;;;16.90;;
63555;SDS011;49700;48.072;7.800;2023-05-21T02:30:26;20.25;;;15.63;;
63555;SDS011;49700;48.072;7.800;2023-05-21T02:32:52;17.50;;;15.63;;
63555;SDS011;49700;48.072;7.800;2023-05-21T02:35:17;21.03;;;14.87;;
63555;SDS011;49700;48.072;7.800;2023-05-21T02:37:43;22.93;;;15.40;;
63555;SDS011;49700;48.072;7.800;2023-05-21T02:40:09;19.47;;;15.00;;
63555;SDS011;49700;48.072;7.800;2023-05-21T02:42:35;20.33;;;15.20;;
63555;SDS011;49700;48.072;7.800;2023-05-21T02:45:07;18.13;;;15.55;;
63555;SDS011;49700;48.072;7.800;2023-05-21T02:47:34;20.83;;;16.35;;
63555;SDS011;49700;48.072;7.800;2023-05-21T02:49:59;21.97;;;15.40;;
63555;SDS011;49700;48.072;7.800;2023-05-21T02:52:26;21.13;;;15.98;;
63555;SDS011;49700;48.072;7.800;2023-05-21T02:54:51;23.60;;;16.00;;
63555;SDS011;49700;48.072;7.800;2023-05-21T02:57:17;18.80;;;15.60;;
63555;SDS011;49700;48.072;7.800;2023-05-21T02:59:43;24.47;;;18.07;;
63555;SDS011;49700;48.072;7.800;2023-05-21T03:02:09;22.40;;;16.20;;
63555;SDS011;49700;48.072;7.800;2023-05-21T03:04:35;21.07;;;15.63;;
63555;SDS011;49700;48.072;7.800;2023-05-21T03:07:10;22.20;;;16.30;;
63555;SDS011;49700;48.072;7.800;2023-05-21T03:09:38;22.73;;;17.02;;
63555;SDS011;49700;48.072;7.800;2023-05-21T03:12:06;20.63;;;16.45;;
63555;SDS011;49700;48.072;7.800;2023-05-21T03:14:32;25.30;;;16.87;;
63555;SDS011;49700;48.072;7.800;2023-05-21T03:16:57;18.50;;;15.53;;
63555;SDS011;49700;48.072;7.800;2023-05-21T03:19:23;22.10;;;17.10;;
63555;SDS011;49700;48.072;7.800;2023-05-21T03:21:48;25.33;;;17.57;;
63555;SDS011;49700;48.072;7.800;2023-05-21T03:24:14;23.30;;;16.57;;
63555;SDS011;49700;48.072;7.800;2023-05-21T03:26:40;21.97;;;15.70;;
63555;SDS011;49700;48.072;7.800;2023-05-21T03:29:06;24.90;;;18.00;;
63555;SDS011;49700;48.072;7.800;2023-05-21T03:31:33;21.23;;;16.70;;
63555;SDS011;49700;48.072;7.800;2023-05-21T03:34:05;26.35;;;17.80;;
63555;SDS011;49700;48.072;7.800;2023-05-21T03:36:32;26.77;;;17.55;;
63555;SDS011;49700;48.072;7.800;2023-05-21T03:38:58;23.80;;;16.03;;
63555;SDS011;49700;48.072;7.800;2023-05-21T03:41:23;21.83;;;17.20;;
63555;SDS011;49700;48.072;7.800;2023-05-21T03:43:53;22.77;;;16.42;;
63555;SDS011;49700;48.072;7.800;2023-05-21T03:46:22;25.45;;;18.48;;
63555;SDS011;49700;48.072;7.800;2023-05-21T03:48:59;24.73;;;16.50;;
63555;SDS011;49700;48.072;7.800;2023-05-21T03:51:26;24.00;;;17.63;;
63555;SDS011;49700;48.072;7.800;2023-05-21T03:53:54;21.20;;;16.40;;
63555;SDS011;49700;48.072;7.800;2023-05-21T03:56:21;28.25;;;17.10;;
63555;SDS011;49700;48.072;7.800;2023-05-21T03:58:47;22.80;;;16.07;;
63555;SDS011;49700;48.072;7.800;2023-05-21T04:01:12;21.57;;;16.27;;
63555;SDS011;49700;48.072;7.800;2023-05-21T04:03:38;20.47;;;15.20;;
63555;SDS011;49700;48.072;7.800;2023-05-21T04:06:05;26.55;;;20.52;;
63555;SDS011;49700;48.072;7.800;2023-05-21T04:08:31;21.95;;;18.90;;
63555;SDS011;49700;48.072;7.800;2023-05-21T04:10:56;26.20;;;17.50;;
63555;SDS011;49700;48.072;7.800;2023-05-21T04:13:22;22.97;;;18.20;;
63555;SDS011;49700;48.072;7.800;2023-05-21T04:15:47;23.40;;;17.60;;
63555;SDS011;49700;48.072;7.800;2023-05-21T04:18:14;28.98;;;17.48;;
63555;SDS011;49700;48.072;7.800;2023-05-21T04:20:45;26.80;;;18.45;;
63555;SDS011;49700;48.072;7.800;2023-05-21T04:23:10;25.30;;;17.77;;
63555;SDS011;49700;48.072;7.800;2023-05-21T04:25:36;28.33;;;19.20;;
63555;SDS011;49700;48.072;7.800;2023-05-21T04:28:02;24.13;;;17.70;;
63555;SDS011;49700;48.072;7.800;2023-05-21T04:30:28;22.85;;;15.73;;
63555;SDS011;49700;48.072;7.800;2023-05-21T04:32:54;28.13;;;18.97;;
63555;SDS011;49700;48.072;7.800;2023-05-21T04:35:20;26.43;;;20.20;;
63555;SDS011;49700;48.072;7.800;2023-05-21T04:37:45;28.37;;;18.63;;
63555;SDS011;49700;48.072;7.800;2023-05-21T04:40:14;23.53;;;16.50;;
63555;SDS011;49700;48.072;7.800;2023-05-21T04:42:45;20.85;;;17.58;;
63555;SDS011;49700;48.072;7.800;2023-05-21T04:45:13;24.10;;;18.80;;
63555;SDS011;49700;48.072;7.800;2023-05-21T04:47:41;21.90;;;16.20;;
63555;SDS011;49700;48.072;7.800;2023-05-21T04:50:08;19.63;;;15.13;;
63555;SDS011;49700;48.072;7.800;2023-05-21T04:52:34;19.23;;;15.45;;
63555;SDS011;49700;48.072;7.800;2023-05-21T04:55:01;25.15;;;17.50;;
63555;SDS011;49700;48.072;7.800;2023-05-21T04:57:27;23.48;;;19.17;;
63555;SDS011;49700;48.072;7.800;2023-05-21T04:59:53;28.05;;;17.77;;
63555;SDS011;49700;48.072;7.800;2023-05-21T05:02:19;27.00;;;18.83;;
63555;SDS011;49700;48.072;7.800;2023-05-21T05:04:44;19.70;;;16.30;;
63555;SDS011;49700;48.072;7.800;2023-05-21T05:07:10;24.20;;;18.00;;
63555;SDS011;49700;48.072;7.800;2023-05-21T05:09:36;20.00;;;17.03;;
63555;SDS011;49700;48.072;7.800;2023-05-21T05:12:02;24.10;;;18.23;;
63555;SDS011;49700;48.072;7.800;2023-05-21T05:14:27;21.97;;;17.10;;
63555;SDS011;49700;48.072;7.800;2023-05-21T05:16:53;24.80;;;16.23;;
63555;SDS011;49700;48.072;7.800;2023-05-21T05:19:23;26.95;;;17.63;;
63555;SDS011;49700;48.072;7.800;2023-05-21T05:21:49;25.07;;;18.13;;
63555;SDS011;49700;48.072;7.800;2023-05-21T05:24:14;22.50;;;18.00;;
63555;SDS011;49700;48.072;7.800;2023-05-21T05:26:40;22.23;;;17.25;;
63555;SDS011;49700;48.072;7.800;2023-05-21T05:29:06;21.57;;;17.83;;
63555;SDS011;49700;48.072;7.800;2023-05-21T05:31:31;26.30;;;18.87;;
63555;SDS011;49700;48.072;7.800;2023-05-21T05:33:57;20.20;;;17.10;;
63555;SDS011;49700;48.072;7.800;2023-05-21T05:36:23;23.45;;;19.25;;
63555;SDS011;49700;48.072;7.800;2023-05-21T05:38:48;22.77;;;18.37;;
63555;SDS011;49700;48.072;7.800;2023-05-21T05:41:15;23.60;;;16.00;;
63555;SDS011;49700;48.072;7.800;2023-05-21T05:43:40;23.87;;;17.63;;
63555;SDS011;49700;48.072;7.800;2023-05-21T05:46:06;19.40;;;15.67;;
63555;SDS011;49700;48.072;7.800;2023-05-21T05:48:32;21.60;;;15.57;;
63555;SDS011;49700;48.072;7.800;2023-05-21T05:50:57;29.00;;;17.20;;
63555;SDS011;49700;48.072;7.800;2023-05-21T05:53:24;19.52;;;16.65;;
63555;SDS011;49700;48.072;7.800;2023-05-21T05:55:50;24.87;;;18.00;;
63555;SDS011;49700;48.072;7.800;2023-05-21T05:58:15;22.77;;;16.30;;
63555;SDS011;49700;48.072;7.800;2023-05-21T06:01:04;21.83;;;16.07;;
63555;SDS011;49700;48.072;7.800;2023-05-21T06:03:30;25.80;;;17.50;;
63555;SDS011;49700;48.072;7.800;2023-05-21T06:05:56;23.98;;;19.05;;
63555;SDS011;49700;48.072;7.800;2023-05-21T06:08:22;19.70;;;15.77;;
63555;SDS011;49700;48.072;7.800;2023-05-21T06:10:48;22.67;;;17.10;;
63555;SDS011;49700;48.072;7.800;2023-05-21T06:13:14;26.37;;;17.00;;
63555;SDS011;49700;48.072;7.800;2023-05-21T06:15:39;19.33;;;17.10;;
63555;SDS011;49700;48.072;7.800;2023-05-21T06:18:07;23.20;;;17.20;;
63555;SDS011;49700;48.072;7.800;2023-05-21T06:20:33;19.90;;;15.00;;
63555;SDS011;49700;48.072;7.800;2023-05-21T06:22:59;21.17;;;16.67;;
63555;SDS011;49700;48.072;7.800;2023-05-21T06:25:25;20.10;;;15.20;;
63555;SDS011;49700;48.072;7.800;2023-05-21T06:27:51;18.80;;;16.30;;
63555;SDS011;49700;48.072;7.800;2023-05-21T06:30:22;18.67;;;14.30;;
63555;SDS011;49700;48.072;7.800;2023-05-21T06:32:47;20.40;;;15.63;;
63555;SDS011;49700;48.072;7.800;2023-05-21T06:35:13;22.08;;;17.27;;
63555;SDS011;49700;48.072;7.800;2023-05-21T06:37:38;19.63;;;17.00;;
63555;SDS011;49700;48.072;7.800;2023-05-21T06:40:05;17.33;;;15.27;;
63555;SDS011;49700;48.072;7.800;2023-05-21T06:42:32;17.90;;;14.90;;
63555;SDS011;49700;48.072;7.800;2023-05-21T06:45:29;19.33;;;16.20;;
63555;SDS011;49700;48.072;7.800;2023-05-21T06:47:59;22.07;;;16.23;;
63555;SDS011;49700;48.072;7.800;2023-05-21T06:50:25;19.67;;;15.03;;
63555;SDS011;49700;48.072;7.800;2023-05-21T06:52:50;19.20;;;14.40;;
63555;SDS011;49700;48.072;7.800;2023-05-21T06:55:16;17.93;;;15.30;;
63555;SDS011;49700;48.072;7.800;2023-05-21T06:58:00;22.60;;;16.10;;
63555;SDS011;49700;48.072;7.800;2023-05-21T07:00:25;17.83;;;15.97;;
63555;SDS011;49700;48.072;7.800;2023-05-21T07:02:51;18.80;;;16.07;;
63555;SDS011;49700;48.072;7.800;2023-05-21T07:05:17;23.73;;;17.13;;
63555;SDS011;49700;48.072;7.800;2023-05-21T07:07:43;20.70;;;16.50;;
63555;SDS011;49700;48.072;7.800;2023-05-21T07:10:08;23.43;;;17.30;;
63555;SDS011;49700;48.072;7.800;2023-05-21T07:12:34;19.07;;;15.17;;
63555;SDS011;49700;48.072;7.800;2023-05-21T07:15:01;19.73;;;16.80;;
63555;SDS011;49700;48.072;7.800;2023-05-21T07:17:27;21.73;;;14.90;;
63555;SDS011;49700;48.072;7.800;2023-05-21T07:19:53;20.47;;;16.20;;
63555;SDS011;49700;48.072;7.800;2023-05-21T07:22:20;19.87;;;15.83;;
63555;SDS011;49700;48.072;7.800;2023-05-21T07:24:45;19.60;;;15.53;;
63555;SDS011;49700;48.072;7.800;2023-05-21T07:27:11;17.83;;;14.80;;
63555;SDS011;49700;48.072;7.800;2023-05-21T07:29:36;18.60;;;15.63;;
63555;SDS011;49700;48.072;7.800;2023-05-21T07:32:02;18.07;;;14.30;;
63555;SDS011;49700;48.072;7.800;2023-05-21T07:34:28;20.40;;;16.43;;
63555;SDS011;49700;48.072;7.800;2023-05-21T07:36:53;21.17;;;15.87;;
63555;SDS011;49700;48.072;7.800;2023-05-21T07:39:20;19.00;;;16.70;;
63555;SDS011;49700;48.072;7.800;2023-05-21T07:41:46;20.40;;;14.77;;
63555;SDS011;49700;48.072;7.800;2023-05-21T07:44:11;20.10;;;16.30;;
63555;SDS011;49700;48.072;7.800;2023-05-21T07:46:40;19.30;;;15.77;;
63555;SDS011;49700;48.072;7.800;2023-05-21T07:49:06;19.87;;;14.63;;
63555;SDS011;49700;48.072;7.800;2023-05-21T07:51:31;16.90;;;14.53;;
63555;SDS011;49700;48.072;7.800;2023-05-21T07:53:57;18.63;;;14.00;;
63555;SDS011;49700;48.072;7.800;2023-05-21T07:56:29;20.63;;;15.53;;
63555;SDS011;49700;48.072;7.800;2023-05-21T07:58:56;17.33;;;14.40;;
63555;SDS011;49700;48.072;7.800;2023-05-21T08:01:23;21.10;;;17.00;;
63555;SDS011;49700;48.072;7.800;2023-05-21T08:03:49;18.27;;;14.80;;
63555;SDS011;49700;48.072;7.800;2023-05-21T08:06:14;15.17;;;13.53;;
63555;SDS011;49700;48.072;7.800;2023-05-21T08:08:40;15.83;;;13.70;;
63555;SDS011;49700;48.072;7.800;2023-05-21T08:11:05;19.60;;;15.20;;
63555;SDS011;49700;48.072;7.800;2023-05-21T08:13:32;17.37;;;14.70;;
63555;SDS011;49700;48.072;7.800;2023-05-21T08:15:57;17.60;;;14.70;;
63555;SDS011;49700;48.072;7.800;2023-05-21T08:18:24;19.80;;;15.37;;
63555;SDS011;49700;48.072;7.800;2023-05-21T08:20:52;20.40;;;15.27;;
63555;SDS011;49700;48.072;7.800;2023-05-21T08:23:19;17.80;;;15.50;;
63555;SDS011;49700;48.072;7.800;2023-05-21T08:25:49;19.90;;;16.07;;
63555;SDS011;49700;48.072;7.800;2023-05-21T08:28:14;19.73;;;16.07;;
63555;SDS011;49700;48.072;7.800;2023-05-21T08:30:40;17.87;;;14.80;;
63555;SDS011;49700;48.072;7.800;2023-05-21T08:33:05;17.97;;;14.47;;
63555;SDS011;49700;48.072;7.800;2023-05-21T08:35:32;17.93;;;13.73;;
63555;SDS011;49700;48.072;7.800;2023-05-21T08:38:27;17.07;;;14.70;;
63555;SDS011;49700;48.072;7.800;2023-05-21T08:40:58;14.93;;;13.40;;
63555;SDS011;49700;48.072;7.800;2023-05-21T08:43:27;16.43;;;14.73;;
63555;SDS011;49700;48.072;7.800;2023-05-21T08:45:54;18.03;;;13.53;;
63555;SDS011;49700;48.072;7.800;2023-05-21T08:48:27;18.80;;;14.37;;
63555;SDS011;49700;48.072;7.800;2023-05-21T08:50:52;17.43;;;15.60;;
63555;SDS011;49700;48.072;7.800;2023-05-21T08:53:26;18.80;;;16.63;;
63555;SDS011;49700;48.072;7.800;2023-05-21T08:55:52;18.90;;;14.63;;
63555;SDS011;49700;48.072;7.800;2023-05-21T08:58:20;18.27;;;14.40;;
63555;SDS011;49700;48.072;7.800;2023-05-21T09:00:46;14.50;;;12.80;;
63555;SDS011;49700;48.072;7.800;2023-05-21T09:03:13;18.55;;;15.07;;
63555;SDS011;49700;48.072;7.800;2023-05-21T09:05:41;19.60;;;16.90;;
63555;SDS011;49700;48.072;7.800;2023-05-21T09:10:59;17.27;;;14.67;;
63555;SDS011;49700;48.072;7.800;2023-05-21T09:13:32;16.60;;;14.67;;
63555;SDS011;49700;48.072;7.800;2023-05-21T09:16:01;17.33;;;14.97;;
63555;SDS011;49700;48.072;7.800;2023-05-21T09:18:27;18.93;;;16.23;;
63555;SDS011;49700;48.072;7.800;2023-05-21T09:21:23;20.70;;;14.17;;
63555;SDS011;49700;48.072;7.800;2023-05-21T09:23:54;15.30;;;13.70;;
63555;SDS011;49700;48.072;7.800;2023-05-21T09:26:21;20.27;;;16.00;;
63555;SDS011;49700;48.072;7.800;2023-05-21T09:28:47;16.30;;;14.10;;
63555;SDS011;49700;48.072;7.800;2023-05-21T09:31:13;17.90;;;14.17;;
63555;SDS011;49700;48.072;7.800;2023-05-21T09:33:44;20.23;;;15.37;;
63555;SDS011;49700;48.072;7.800;2023-05-21T09:36:10;18.03;;;14.70;;
63555;SDS011;49700;48.072;7.800;2023-05-21T09:38:36;16.70;;;14.77;;
63555;SDS011;49700;48.072;7.800;2023-05-21T09:41:03;17.37;;;14.50;;
63555;SDS011;49700;48.072;7.800;2023-05-21T09:43:30;15.77;;;13.93;;
63555;SDS011;49700;48.072;7.800;2023-05-21T09:45:56;18.70;;;16.50;;
63555;SDS011;49700;48.072;7.800;2023-05-21T09:48:31;15.77;;;13.77;;
63555;SDS011;49700;48.072;7.800;2023-05-21T09:51:06;18.30;;;14.70;;
63555;SDS011;49700;48.072;7.800;2023-05-21T09:53:35;16.50;;;14.27;;
63555;SDS011;49700;48.072;7.800;2023-05-21T09:56:01;14.97;;;13.37;;
63555;SDS011;49700;48.072;7.800;2023-05-21T09:58:27;15.77;;;13.97;;
63555;SDS011;49700;48.072;7.800;2023-05-21T10:00:53;17.33;;;14.97;;
63555;SDS011;49700;48.072;7.800;2023-05-21T10:03:18;17.50;;;14.17;;
63555;SDS011;49700;48.072;7.800;2023-05-21T10:05:47;19.13;;;14.53;;
63555;SDS011;49700;48.072;7.800;2023-05-21T10:08:15;16.20;;;13.83;;
63555;SDS011;49700;48.072;7.800;2023-05-21T10:10:42;19.70;;;14.40;;
63555;SDS011;49700;48.072;7.800;2023-05-21T10:13:11;15.40;;;13.30;;
63555;SDS011;49700;48.072;7.800;2023-05-21T10:15:41;15.50;;;13.57;;
63555;SDS011;49700;48.072;7.800;2023-05-21T10:18:10;18.80;;;14.63;;
63555;SDS011;49700;48.072;7.800;2023-05-21T10:20:37;17.43;;;13.53;;
63555;SDS011;49700;48.072;7.800;2023-05-21T10:23:03;18.40;;;15.07;;
63555;SDS011;49700;48.072;7.800;2023-05-21T10:25:29;16.70;;;13.30;;
63555;SDS011;49700;48.072;7.800;2023-05-21T10:27:56;17.03;;;14.23;;
63555;SDS011;49700;48.072;7.800;2023-05-21T10:30:22;19.40;;;15.57;;
63555;SDS011;49700;48.072;7.800;2023-05-21T10:32:48;15.03;;;13.37;;
63555;SDS011;49700;48.072;7.800;2023-05-21T10:35:17;14.93;;;13.40;;
63555;SDS011;49700;48.072;7.800;2023-05-21T10:37:43;16.57;;;14.77;;
63555;SDS011;49700;48.072;7.800;2023-05-21T10:40:09;15.67;;;14.07;;
63555;SDS011;49700;48.072;7.800;2023-05-21T10:51:24;16.87;;;12.37;;
63555;SDS011;49700;48.072;7.800;2023-05-21T10:59:58;16.60;;;13.57;;
63555;SDS011;49700;48.072;7.800;2023-05-21T11:02:25;16.27;;;14.17;;
63555;SDS011;49700;48.072;7.800;2023-05-21T11:04:58;14.47;;;13.00;;
63555;SDS011;49700;48.072;7.800;2023-05-21T11:08:10;17.80;;;14.77;;
63555;SDS011;49700;48.072;7.800;2023-05-21T11:10:39;18.47;;;14.73;;
63555;SDS011;49700;48.072;7.800;2023-05-21T11:13:15;17.13;;;14.90;;
63555;SDS011;49700;48.072;7.800;2023-05-21T11:18:22;16.67;;;14.10;;
63555;SDS011;49700;48.072;7.800;2023-05-21T11:20:51;14.80;;;12.23;;
63555;SDS011;49700;48.072;7.800;2023-05-21T11:23:17;16.37;;;14.43;;
63555;SDS011;49700;48.072;7.800;2023-05-21T11:25:49;16.07;;;13.57;;
63555;SDS011;49700;48.072;7.800;2023-05-21T11:28:31;12.67;;;11.47;;
63555;SDS011;49700;48.072;7.800;2023-05-21T11:36:48;16.70;;;12.37;;
63555;SDS011;49700;48.072;7.800;2023-05-21T11:39:14;14.87;;;12.70;;
63555;SDS011;49700;48.072;7.800;2023-05-21T11:44:14;15.03;;;12.93;;
63555;SDS011;49700;48.072;7.800;2023-05-21T11:46:39;14.40;;;12.70;;
63555;SDS011;49700;48.072;7.800;2023-05-21T11:49:05;15.83;;;12.23;;
63555;SDS011;49700;48.072;7.800;2023-05-21T11:51:30;15.20;;;12.50;;
63555;SDS011;49700;48.072;7.800;2023-05-21T11:53:56;12.60;;;11.27;;
63555;SDS011;49700;48.072;7.800;2023-05-21T11:56:23;14.60;;;11.33;;
63555;SDS011;49700;48.072;7.800;2023-05-21T11:58:52;14.67;;;13.27;;
63555;SDS011;49700;48.072;7.800;2023-05-21T12:01:20;13.73;;;12.33;;
63555;SDS011;49700;48.072;7.800;2023-05-21T12:03:47;14.93;;;13.63;;
63555;SDS011;49700;48.072;7.800;2023-05-21T12:06:12;14.97;;;11.70;;
63555;SDS011;49700;48.072;7.800;2023-05-21T12:08:38;13.20;;;11.80;;
63555;SDS011;49700;48.072;7.800;2023-05-21T12:11:03;13.50;;;11.80;;
63555;SDS011;49700;48.072;7.800;2023-05-21T12:13:29;12.60;;;11.33;;
63555;SDS011;49700;48.072;7.800;2023-05-21T12:15:54;15.50;;;12.67;;
63555;SDS011;49700;48.072;7.800;2023-05-21T12:18:20;13.83;;;12.40;;
63555;SDS011;49700;48.072;7.800;2023-05-21T12:20:45;13.60;;;12.33;;
63555;SDS011;49700;48.072;7.800;2023-05-21T12:23:23;14.10;;;11.90;;
63555;SDS011;49700;48.072;7.800;2023-05-21T12:25:49;14.70;;;12.93;;
63555;SDS011;49700;48.072;7.800;2023-05-21T12:28:16;14.00;;;12.50;;
63555;SDS011;49700;48.072;7.800;2023-05-21T12:30:41;13.27;;;11.30;;
63555;SDS011;49700;48.072;7.800;2023-05-21T12:33:07;13.27;;;11.73;;
63555;SDS011;49700;48.072;7.800;2023-05-21T12:35:32;11.80;;;10.60;;
63555;SDS011;49700;48.072;7.800;2023-05-21T12:38:01;14.10;;;12.60;;
63555;SDS011;49700;48.072;7.800;2023-05-21T12:40:34;11.57;;;10.37;;
63555;SDS011;49700;48.072;7.800;2023-05-21T12:43:01;13.00;;;11.27;;
63555;SDS011;49700;48.072;7.800;2023-05-21T12:45:27;13.83;;;11.67;;
63555;SDS011;49700;48.072;7.800;2023-05-21T12:47:53;15.27;;;11.57;;
63555;SDS011;49700;48.072;7.800;2023-05-21T12:50:20;12.47;;;11.17;;
63555;SDS011;49700;48.072;7.800;2023-05-21T12:52:46;14.40;;;12.00;;
63555;SDS011;49700;48.072;7.800;2023-05-21T12:55:14;11.50;;;10.30;;
63555;SDS011;49700;48.072;7.800;2023-05-21T12:57:41;13.13;;;11.17;;
63555;SDS011;49700;48.072;7.800;2023-05-21T13:00:08;12.87;;;11.57;;
63555;SDS011;49700;48.072;7.800;2023-05-21T13:02:40;12.67;;;11.20;;
63555;SDS011;49700;48.072;7.800;2023-05-21T13:05:07;11.67;;;10.47;;
63555;SDS011;49700;48.072;7.800;2023-05-21T13:07:34;12.23;;;11.03;;
63555;SDS011;49700;48.072;7.800;2023-05-21T13:10:02;11.80;;;10.67;;
63555;SDS011;49700;48.072;7.800;2023-05-21T13:12:29;12.77;;;11.20;;
63555;SDS011;49700;48.072;7.800;2023-05-21T13:14:56;11.77;;;10.63;;
63555;SDS011;49700;48.072;7.800;2023-05-21T13:17:23;11.67;;;10.53;;
63555;SDS011;49700;48.072;7.800;2023-05-21T13:22:33;13.37;;;12.07;;
63555;SDS011;49700;48.072;7.800;2023-05-21T13:25:02;12.63;;;10.37;;
63555;SDS011;49700;48.072;7.800;2023-05-21T13:27:28;11.43;;;10.00;;
63555;SDS011;49700;48.072;7.800;2023-05-21T13:29:54;13.00;;;11.00;;
63555;SDS011;49700;48.072;7.800;2023-05-21T13:32:20;11.30;;;9.57;;
63555;SDS011;49700;48.072;7.800;2023-05-21T13:34:46;12.13;;;11.00;;
63555;SDS011;49700;48.072;7.800;2023-05-21T13:37:12;11.87;;;10.77;;
63555;SDS011;49700;48.072;7.800;2023-05-21T13:39:37;14.20;;;11.70;;
63555;SDS011;49700;48.072;7.800;2023-05-21T13:42:03;12.10;;;10.60;;
63555;SDS011;49700;48.072;7.800;2023-05-21T13:44:30;13.30;;;10.50;;
63555;SDS011;49700;48.072;7.800;2023-05-21T13:47:03;13.57;;;10.70;;
63555;SDS011;49700;48.072;7.800;2023-05-21T13:49:33;10.23;;;9.23;;
63555;SDS011;49700;48.072;7.800;2023-05-21T13:51:58;12.13;;;10.83;;
63555;SDS011;49700;48.072;7.800;2023-05-21T13:54:25;12.10;;;9.67;;
63555;SDS011;49700;48.072;7.800;2023-05-21T13:56:51;13.07;;;11.77;;
63555;SDS011;49700;48.072;7.800;2023-05-21T13:59:16;13.13;;;11.10;;
63555;SDS011;49700;48.072;7.800;2023-05-21T14:01:41;12.63;;;11.30;;
63555;SDS011;49700;48.072;7.800;2023-05-21T14:04:09;11.60;;;10.30;;
63555;SDS011;49700;48.072;7.800;2023-05-21T14:06:34;12.30;;;11.03;;
63555;SDS011;49700;48.072;7.800;2023-05-21T14:09:00;14.20;;;11.30;;
63555;SDS011;49700;48.072;7.800;2023-05-21T14:11:26;12.87;;;11.63;;
63555;SDS011;49700;48.072;7.800;2023-05-21T14:13:52;13.60;;;12.20;;
63555;SDS011;49700;48.072;7.800;2023-05-21T14:16:18;13.70;;;11.40;;
63555;SDS011;49700;48.072;7.800;2023-05-21T14:18:44;12.87;;;11.57;;
63555;SDS011;49700;48.072;7.800;2023-05-21T14:21:09;12.83;;;11.57;;
63555;SDS011;49700;48.072;7.800;2023-05-21T14:23:34;12.57;;;10.80;;
63555;SDS011;49700;48.072;7.800;2023-05-21T14:26:00;12.53;;;11.13;;
63555;SDS011;49700;48.072;7.800;2023-05-21T14:28:25;11.50;;;10.30;;
63555;SDS011;49700;48.072;7.800;2023-05-21T14:30:51;11.60;;;10.20;;
63555;SDS011;49700;48.072;7.800;2023-05-21T14:33:16;11.20;;;10.00;;
63555;SDS011;49700;48.072;7.800;2023-05-21T14:35:41;16.27;;;10.37;;
63555;SDS011;49700;48.072;7.800;2023-05-21T14:38:08;12.30;;;9.93;;
63555;SDS011;49700;48.072;7.800;2023-05-21T14:40:34;12.00;;;10.57;;
63555;SDS011;49700;48.072;7.800;2023-05-21T14:43:00;12.10;;;10.90;;
63555;SDS011;49700;48.072;7.800;2023-05-21T14:45:26;12.90;;;10.47;;
63555;SDS011;49700;48.072;7.800;2023-05-21T14:47:51;10.83;;;9.73;;
63555;SDS011;49700;48.072;7.800;2023-05-21T14:50:17;11.40;;;10.20;;
63555;SDS011;49700;48.072;7.800;2023-05-21T14:52:42;15.93;;;11.80;;
63555;SDS011;49700;48.072;7.800;2023-05-21T14:55:09;12.50;;;10.40;;